Time;durP1;ratioP1;P1;durP2;ratioP2;P2;SDS_P1;SDS_P2;PMS_P1;PMS_P2;Temp;Humidity;BMP_temperature;BMP_pressure;BME280_temperature;BME280_humidity;BME280_pressure;Samples;Min_cycle;Max_cycle;Signal;HPM_P1;HPM_P2
2021/08/06 04:31:59;;;;;;;1.80;1.40;;;16.50;99.90;;;;;;5484807;23;20508;-79
2021/08/06 04:34:24;;;;;;;1.80;1.70;;;16.50;99.90;;;;;;4927005;29;20437;-79
2021/08/06 04:36:53;;;;;;;1.20;1.10;;;16.50;99.90;;;;;;4927184;29;20582;-77
2021/08/06 04:39:19;;;;;;;3.80;1.13;;;16.50;99.90;;;;;;4935189;29;20188;-79
2021/08/06 04:41:45;;;;;;;1.43;1.30;;;16.50;99.90;;;;;;4922894;29;20445;-78
2021/08/06 04:44:10;;;;;;;1.27;1.17;;;16.40;99.90;;;;;;4914735;29;20406;-77
2021/08/06 04:46:36;;;;;;;1.70;1.50;;;16.30;99.90;;;;;;4918175;29;20190;-80
2021/08/06 04:49:02;;;;;;;1.50;1.33;;;16.20;99.90;;;;;;4920331;29;20243;-81
2021/08/06 04:51:27;;;;;;;2.00;1.40;;;16.10;99.90;;;;;;4920082;29;20558;-80
2021/08/06 04:53:53;;;;;;;3.50;1.50;;;16.00;99.90;;;;;;4920579;29;20190;-78
2021/08/06 04:56:19;;;;;;;2.03;1.80;;;15.90;99.90;;;;;;4922106;29;20217;-79
2021/08/06 04:58:44;;;;;;;1.67;1.57;;;15.80;99.90;;;;;;4930779;29;20742;-80
2021/08/06 05:01:10;;;;;;;4.07;2.13;;;15.70;99.90;;;;;;4918137;29;20213;-81
2021/08/06 05:03:35;;;;;;;2.30;1.40;;;15.70;99.90;;;;;;4916422;29;20221;-79
2021/08/06 05:06:01;;;;;;;2.57;1.83;;;15.60;99.90;;;;;;4917823;29;20182;-80
2021/08/06 05:08:26;;;;;;;3.20;1.60;;;15.60;99.90;;;;;;4916174;29;20181;-81
2021/08/06 05:10:52;;;;;;;3.83;2.20;;;15.50;99.90;;;;;;4915658;29;20553;-80
2021/08/06 05:13:17;;;;;;;3.03;2.47;;;15.60;99.90;;;;;;4914428;29;20197;-80
2021/08/06 05:15:43;;;;;;;1.77;1.60;;;15.60;99.90;;;;;;4915066;29;20261;-80
2021/08/06 05:18:08;;;;;;;2.53;2.00;;;15.60;99.90;;;;;;4915473;29;20260;-80
2021/08/06 05:20:34;;;;;;;1.90;1.80;;;15.60;99.90;;;;;;4914544;29;20647;-78
2021/08/06 05:22:59;;;;;;;1.97;1.87;;;15.50;99.90;;;;;;4915330;29;20184;-80
2021/08/06 05:25:25;;;;;;;2.27;1.90;;;15.50;99.90;;;;;;4915478;29;20726;-80
2021/08/06 05:27:50;;;;;;;2.10;1.90;;;15.50;99.90;;;;;;4915125;29;20193;-80
2021/08/06 05:30:20;;;;;;;1.97;1.57;;;15.50;99.90;;;;;;4914982;29;20242;-80
2021/08/06 05:32:46;;;;;;;1.93;1.83;;;15.50;99.90;;;;;;4915204;29;20664;-80
2021/08/06 05:35:11;;;;;;;3.67;1.80;;;15.50;99.90;;;;;;4915649;29;20687;-80
2021/08/06 05:37:37;;;;;;;2.83;1.47;;;15.50;99.90;;;;;;4915338;29;20213;-79
2021/08/06 05:40:03;;;;;;;1.50;1.40;;;15.50;99.90;;;;;;4915851;29;20643;-79
2021/08/06 05:42:29;;;;;;;2.23;2.00;;;15.50;99.90;;;;;;4905553;29;20240;-80
2021/08/06 05:44:55;;;;;;;2.80;1.43;;;15.60;99.90;;;;;;4916051;29;20454;-79
2021/08/06 05:47:20;;;;;;;2.80;1.60;;;15.60;99.90;;;;;;4915490;29;20178;-79
2021/08/06 05:49:46;;;;;;;2.10;1.57;;;15.60;99.90;;;;;;4915978;29;20193;-80
2021/08/06 05:52:11;;;;;;;2.03;1.70;;;15.70;99.90;;;;;;4916676;29;20288;-78
2021/08/06 05:54:37;;;;;;;1.77;1.20;;;15.60;99.90;;;;;;4915441;29;20216;-78
2021/08/06 05:57:02;;;;;;;4.63;1.50;;;15.60;99.90;;;;;;4916230;29;20213;-79
2021/08/06 05:59:28;;;;;;;1.77;1.67;;;15.70;99.90;;;;;;4917521;29;20182;-80
2021/08/06 06:01:53;;;;;;;5.00;1.83;;;15.70;99.90;;;;;;4917106;29;20213;-78
2021/08/06 06:04:19;;;;;;;3.53;1.30;;;15.70;99.90;;;;;;4917394;29;20566;-80
2021/08/06 06:06:44;;;;;;;1.47;1.37;;;15.70;99.90;;;;;;4917890;29;20188;-80
2021/08/06 06:09:10;;;;;;;1.60;1.50;;;15.80;99.90;;;;;;4917873;29;20185;-80
2021/08/06 06:11:35;;;;;;;1.73;1.63;;;15.90;99.90;;;;;;4916923;29;20571;-78
2021/08/06 06:14:01;;;;;;;1.97;1.67;;;15.90;99.90;;;;;;4915047;29;20198;-79
2021/08/06 06:16:27;;;;;;;1.20;1.13;;;16.10;99.90;;;;;;4915534;29;20200;-79
2021/08/06 06:18:54;;;;;;;1.40;1.30;;;16.10;99.90;;;;;;4917435;29;20672;-78
2021/08/06 06:21:19;;;;;;;2.27;1.57;;;16.20;99.90;;;;;;4915625;29;20504;-79
2021/08/06 06:23:45;;;;;;;2.40;1.40;;;16.30;99.90;;;;;;4916435;29;20472;-80
2021/08/06 06:26:10;;;;;;;1.10;1.10;;;16.30;99.90;;;;;;4920276;29;20193;-79
2021/08/06 06:28:36;;;;;;;1.47;1.30;;;16.30;99.90;;;;;;4920857;29;20180;-79
2021/08/06 06:31:02;;;;;;;2.50;1.37;;;16.40;99.90;;;;;;4921894;29;20288;-80
2021/08/06 06:33:27;;;;;;;1.77;1.20;;;16.40;99.90;;;;;;4922159;29;20245;-79
2021/08/06 06:35:53;;;;;;;1.27;1.20;;;16.40;99.90;;;;;;4921383;29;20182;-77
2021/08/06 06:38:18;;;;;;;3.10;1.40;;;16.50;99.90;;;;;;4921549;29;20181;-79
2021/08/06 06:40:44;;;;;;;1.73;1.40;;;16.50;99.90;;;;;;4919394;29;20171;-79
2021/08/06 06:43:09;;;;;;;4.03;1.40;;;16.60;99.90;;;;;;4919849;29;20179;-79
2021/08/06 06:45:35;;;;;;;1.40;1.30;;;16.60;99.90;;;;;;4921866;29;20194;-79
2021/08/06 06:48:00;;;;;;;2.87;1.43;;;16.70;99.90;;;;;;4921381;29;20544;-80
2021/08/06 06:50:28;;;;;;;1.80;1.43;;;16.70;99.90;;;;;;4921489;29;20277;-79
2021/08/06 06:52:54;;;;;;;1.50;1.33;;;17.00;99.90;;;;;;4919719;29;20201;-77
2021/08/06 06:55:21;;;;;;;1.63;1.53;;;17.60;99.90;;;;;;4922610;29;20410;-80
2021/08/06 06:57:52;;;;;;;2.10;1.13;;;18.10;99.90;;;;;;4933537;29;20465;-78
2021/08/06 07:00:20;;;;;;;1.23;1.17;;;18.70;99.90;;;;;;4920226;29;20418;-79
2021/08/06 07:02:45;;;;;;;4.60;1.30;;;19.30;99.90;;;;;;4918673;29;20458;-80
2021/08/06 07:05:12;;;;;;;2.60;1.20;;;19.90;99.90;;;;;;4920712;29;20435;-80
2021/08/06 07:07:38;;;;;;;1.53;1.27;;;20.40;99.90;;;;;;4919837;29;20178;-79
2021/08/06 07:10:05;;;;;;;1.27;1.17;;;20.50;99.90;;;;;;4917603;29;20493;-79
2021/08/06 07:12:30;;;;;;;1.10;1.00;;;20.40;99.90;;;;;;4917038;29;20200;-79
2021/08/06 07:14:56;;;;;;;1.77;1.20;;;20.20;99.90;;;;;;4917831;29;20426;-79
2021/08/06 07:17:21;;;;;;;1.20;0.97;;;19.90;99.90;;;;;;4917389;29;20209;-79
2021/08/06 07:19:47;;;;;;;1.23;1.13;;;19.70;99.90;;;;;;4917568;29;20189;-79
2021/08/06 07:22:12;;;;;;;1.37;1.20;;;19.60;99.90;;;;;;4917395;29;20615;-79
2021/08/06 07:24:38;;;;;;;2.30;0.90;;;19.40;99.90;;;;;;4909835;29;20198;-79
2021/08/06 07:27:03;;;;;;;1.40;0.83;;;19.10;99.90;;;;;;4898257;29;20245;-80
2021/08/06 07:29:29;;;;;;;1.13;1.03;;;19.00;99.90;;;;;;4898647;29;20193;-80
2021/08/06 07:31:54;;;;;;;0.80;0.80;;;18.90;99.90;;;;;;4911904;29;20229;-80
2021/08/06 07:34:20;;;;;;;0.83;0.83;;;18.80;99.90;;;;;;4917481;29;20178;-79
2021/08/06 07:36:45;;;;;;;1.20;1.10;;;18.70;99.90;;;;;;4917408;29;20213;-80
2021/08/06 07:39:11;;;;;;;2.57;1.10;;;18.70;99.90;;;;;;4919626;29;20186;-80
2021/08/06 07:41:36;;;;;;;1.20;1.10;;;18.80;99.90;;;;;;4916533;29;20224;-79
2021/08/06 07:44:03;;;;;;;2.10;1.10;;;18.80;99.90;;;;;;4917491;29;20194;-80
2021/08/06 07:46:29;;;;;;;1.30;1.20;;;18.90;99.90;;;;;;4918609;29;20221;-80
2021/08/06 07:48:54;;;;;;;1.30;1.20;;;18.90;99.90;;;;;;4918238;29;20422;-79
2021/08/06 07:51:20;;;;;;;4.80;1.50;;;18.80;99.90;;;;;;4918383;29;20254;-79
2021/08/06 07:53:46;;;;;;;1.37;1.17;;;18.70;99.90;;;;;;4916062;29;20198;-79
2021/08/06 07:56:13;;;;;;;1.43;1.20;;;18.60;99.90;;;;;;4917884;29;20694;-78
2021/08/06 07:58:40;;;;;;;1.50;1.40;;;18.50;99.90;;;;;;4918209;29;20233;-79
2021/08/06 08:01:05;;;;;;;1.50;1.17;;;18.40;99.90;;;;;;4917302;29;20446;-78
2021/08/06 08:03:31;;;;;;;1.30;1.13;;;18.30;99.90;;;;;;4916062;29;21055;-78
2021/08/06 08:05:56;;;;;;;1.03;1.03;;;18.20;99.90;;;;;;4917184;29;20269;-78
2021/08/06 08:08:22;;;;;;;2.30;1.37;;;18.30;99.90;;;;;;4917418;29;20182;-78
2021/08/06 08:10:47;;;;;;;1.40;1.30;;;18.20;99.90;;;;;;4915909;29;20190;-79
2021/08/06 08:13:13;;;;;;;2.07;0.90;;;18.20;99.90;;;;;;4916500;29;20205;-77
2021/08/06 08:15:38;;;;;;;0.93;0.90;;;18.10;99.90;;;;;;4916977;29;20186;-78
2021/08/06 08:18:04;;;;;;;1.23;0.90;;;18.20;99.90;;;;;;4911329;29;20225;-78
2021/08/06 08:20:30;;;;;;;0.90;0.90;;;18.20;99.90;;;;;;4916427;29;20186;-78
2021/08/06 08:22:56;;;;;;;1.73;1.63;;;18.20;99.90;;;;;;4915375;29;20514;-78
2021/08/06 08:25:21;;;;;;;1.87;0.80;;;18.20;99.90;;;;;;4916742;29;20596;-79
2021/08/06 08:27:47;;;;;;;0.80;0.80;;;18.30;99.90;;;;;;4917737;29;20192;-78
2021/08/06 08:30:12;;;;;;;0.73;0.73;;;18.30;99.90;;;;;;4916565;29;20186;-78
2021/08/06 08:32:38;;;;;;;0.70;0.70;;;18.50;99.90;;;;;;4907922;29;20245;-78
2021/08/06 08:35:05;;;;;;;1.60;1.07;;;18.70;99.90;;;;;;4899464;29;20186;-78
2021/08/06 08:37:31;;;;;;;1.63;0.80;;;18.90;99.90;;;;;;4899180;29;20288;-78
2021/08/06 08:39:56;;;;;;;0.77;0.60;;;19.10;99.90;;;;;;4906994;29;20438;-80
2021/08/06 08:42:22;;;;;;;1.00;0.70;;;19.30;99.90;;;;;;4918246;29;20206;-79
2021/08/06 08:44:49;;;;;;;3.33;0.90;;;19.50;99.90;;;;;;4917783;29;20193;-78
2021/08/06 08:47:20;;;;;;;3.03;1.00;;;19.70;99.90;;;;;;4917834;29;20195;-78
2021/08/06 08:49:49;;;;;;;1.40;0.80;;;19.80;99.90;;;;;;4916530;29;20572;-78
2021/08/06 08:52:15;;;;;;;2.20;0.70;;;19.90;99.90;;;;;;4918092;29;20489;-78
2021/08/06 08:54:40;;;;;;;1.93;0.80;;;20.00;99.90;;;;;;4922910;29;21058;-78
2021/08/06 08:57:06;;;;;;;1.07;0.53;;;19.90;99.90;;;;;;4924686;29;20214;-78
2021/08/06 08:59:31;;;;;;;2.40;0.73;;;19.90;99.90;;;;;;4915986;29;20177;-80
2021/08/06 09:01:57;;;;;;;0.60;0.60;;;19.90;99.90;;;;;;4915522;29;20702;-78
2021/08/06 09:04:25;;;;;;;2.17;0.67;;;20.10;99.90;;;;;;4915483;29;20197;-79
2021/08/06 09:06:52;;;;;;;1.70;0.57;;;20.50;99.90;;;;;;4915109;29;20586;-79
2021/08/06 09:09:23;;;;;;;2.10;0.63;;;20.80;99.90;;;;;;4915373;29;20446;-78
2021/08/06 09:11:51;;;;;;;0.60;0.60;;;21.10;99.90;;;;;;4914759;29;20446;-80
2021/08/06 09:14:24;;;;;;;1.00;0.60;;;21.60;99.90;;;;;;4914298;29;20428;-79
2021/08/06 09:16:58;;;;;;;0.60;0.50;;;22.10;99.90;;;;;;4915174;29;20705;-79
2021/08/06 09:19:26;;;;;;;0.80;0.60;;;22.10;99.90;;;;;;4916072;29;20587;-79
2021/08/06 09:22:17;;;;;;;0.90;0.50;;;22.30;99.90;;;;;;4915318;29;20462;-79
2021/08/06 09:25:08;;;;;;;0.60;0.50;;;22.20;99.90;;;;;;4914283;29;20410;-79
2021/08/06 09:27:38;;;;;;;1.00;0.50;;;22.30;99.90;;;;;;4914492;29;20414;-78
2021/08/06 09:30:08;;;;;;;0.83;0.60;;;22.70;99.90;;;;;;4914152;29;20505;-79
2021/08/06 09:32:49;;;;;;;0.60;0.60;;;23.10;99.90;;;;;;4914085;29;20515;-79
2021/08/06 09:35:19;;;;;;;4.40;0.80;;;23.20;99.90;;;;;;4895722;29;20442;-78
2021/08/06 09:37:45;;;;;;;1.33;0.60;;;23.60;99.90;;;;;;4895931;29;20492;-79
2021/08/06 09:40:13;;;;;;;1.27;0.50;;;23.90;99.90;;;;;;4895582;29;20937;-79
2021/08/06 09:42:51;;;;;;;0.60;0.57;;;24.30;99.90;;;;;;4895963;29;20213;-78
2021/08/06 09:45:21;;;;;;;2.30;0.57;;;24.60;99.90;;;;;;4910327;29;20772;-79
2021/08/06 09:47:55;;;;;;;1.63;0.67;;;24.40;99.90;;;;;;4917148;29;20434;-79
2021/08/06 09:50:21;;;;;;;2.10;0.60;;;24.20;99.90;;;;;;4916495;29;20730;-79
2021/08/06 09:52:51;;;;;;;1.37;0.83;;;23.60;99.90;;;;;;4915921;29;20579;-80
2021/08/06 09:55:26;;;;;;;1.43;0.70;;;23.20;99.90;;;;;;4916910;29;20477;-79
2021/08/06 09:57:54;;;;;;;1.00;0.60;;;22.90;99.90;;;;;;4916590;29;20946;-80
2021/08/06 10:00:21;;;;;;;3.07;1.20;;;23.20;99.90;;;;;;4920817;29;20427;-80
2021/08/06 10:02:48;;;;;;;0.73;0.73;;;24.10;99.90;;;;;;4921239;29;20955;-79
2021/08/06 10:05:17;;;;;;;0.73;0.60;;;24.80;99.90;;;;;;4921325;29;20421;-78
2021/08/06 10:07:51;;;;;;;1.43;0.70;;;25.40;99.90;;;;;;4927294;29;20421;-79
2021/08/06 10:10:20;;;;;;;1.10;0.70;;;25.50;99.90;;;;;;4924604;29;20509;-79
2021/08/06 10:12:47;;;;;;;2.40;0.90;;;25.20;99.90;;;;;;4920406;29;20441;-79
2021/08/06 10:15:14;;;;;;;2.00;0.77;;;24.20;99.90;;;;;;4921272;29;20436;-79
2021/08/06 10:17:41;;;;;;;0.97;0.60;;;23.40;99.90;;;;;;4919686;29;20462;-80
2021/08/06 10:20:09;;;;;;;0.97;0.70;;;23.10;99.90;;;;;;4921524;29;20449;-80
2021/08/06 10:22:35;;;;;;;1.00;0.70;;;22.80;99.90;;;;;;4921979;29;20529;-79
2021/08/06 10:25:04;;;;;;;1.83;0.60;;;22.70;99.90;;;;;;4921769;29;20449;-80
2021/08/06 10:27:31;;;;;;;5.67;0.70;;;22.50;99.90;;;;;;4921783;29;20426;-80
2021/08/06 10:30:09;;;;;;;1.00;0.60;;;22.30;99.90;;;;;;4922471;29;20428;-79
2021/08/06 10:32:36;;;;;;;2.10;0.60;;;22.20;99.90;;;;;;4921008;29;20469;-78
2021/08/06 10:35:15;;;;;;;1.73;0.60;;;22.30;99.90;;;;;;4919576;29;20537;-79
2021/08/06 10:37:49;;;;;;;0.90;0.80;;;23.20;99.90;;;;;;4923981;29;20496;-80
2021/08/06 10:40:33;;;;;;;1.27;0.70;;;23.60;99.90;;;;;;4924235;29;20899;-80
2021/08/06 10:42:59;;;;;;;2.47;0.70;;;23.40;99.90;;;;;;4921077;29;20433;-79
2021/08/06 10:46:00;;;;;;;0.87;0.70;;;23.20;99.90;;;;;;4922297;29;20504;-78
2021/08/06 10:48:31;;;;;;;2.50;1.67;;;22.80;99.90;;;;;;4878957;29;20452;-79
2021/08/06 10:51:15;;;;;;;1.43;0.63;;;22.60;99.90;;;;;;4898969;29;20455;-79
2021/08/06 10:53:40;;;;;;;0.73;0.73;;;22.70;99.90;;;;;;4899061;29;20925;-78
2021/08/06 10:56:18;;;;;;;0.90;0.70;;;23.10;99.90;;;;;;4898798;29;20422;-78
2021/08/06 10:58:50;;;;;;;2.40;0.90;;;23.40;99.90;;;;;;4898881;29;20399;-79
2021/08/06 11:01:25;;;;;;;2.23;0.70;;;23.40;99.90;;;;;;4898802;29;20782;-79
2021/08/06 11:03:53;;;;;;;0.80;0.70;;;23.40;99.90;;;;;;4898005;29;20419;-79
2021/08/06 11:06:37;;;;;;;1.47;0.70;;;23.10;99.90;;;;;;4916137;29;20436;-78
2021/08/06 11:09:22;;;;;;;0.67;0.50;;;22.80;99.90;;;;;;4916597;29;20478;-78
2021/08/06 11:11:59;;;;;;;2.73;0.70;;;22.40;99.90;;;;;;4915411;29;20803;-79
2021/08/06 11:14:28;;;;;;;2.30;0.80;;;22.00;99.90;;;;;;4916473;29;20473;-80
2021/08/06 11:17:05;;;;;;;1.43;0.80;;;21.70;99.90;;;;;;4923382;29;20468;-77
2021/08/06 11:19:34;;;;;;;0.90;0.90;;;21.30;99.90;;;;;;4922613;29;20501;-80
2021/08/06 11:22:02;;;;;;;1.03;0.70;;;21.20;99.90;;;;;;4916918;29;20862;-80
2021/08/06 11:24:35;;;;;;;1.07;0.70;;;21.40;99.90;;;;;;4921518;29;20450;-80
2021/08/06 11:27:03;;;;;;;0.87;0.70;;;21.90;99.90;;;;;;4925729;29;20429;-80
2021/08/06 11:29:28;;;;;;;1.07;0.90;;;22.50;99.90;;;;;;4919188;29;21003;-80
2021/08/06 11:32:09;;;;;;;1.00;0.77;;;23.20;99.90;;;;;;4918008;29;20533;-79
2021/08/06 11:34:55;;;;;;;2.50;0.60;;;24.00;99.90;;;;;;4918639;29;20186;-78
2021/08/06 11:37:45;;;;;;;1.10;0.70;;;24.80;99.90;;;;;;4918738;29;20581;-79
2021/08/06 11:40:13;;;;;;;1.63;0.80;;;25.00;99.90;;;;;;4918013;29;20464;-80
2021/08/06 11:42:40;;;;;;;1.17;0.60;;;25.00;99.90;;;;;;4917767;29;20458;-79
2021/08/06 11:45:11;;;;;;;0.67;0.60;;;24.60;99.90;;;;;;4916772;29;20543;-79
2021/08/06 11:47:45;;;;;;;0.80;0.63;;;24.30;99.90;;;;;;4917034;29;20493;-80
2021/08/06 11:50:17;;;;;;;2.30;0.70;;;24.50;99.90;;;;;;4917135;29;20447;-79
2021/08/06 11:52:45;;;;;;;0.60;0.50;;;24.60;99.90;;;;;;4918180;29;20540;-80
2021/08/06 11:55:13;;;;;;;1.33;0.83;;;25.00;99.90;;;;;;4916195;29;20927;-79
2021/08/06 11:57:42;;;;;;;1.80;0.57;;;25.00;99.90;;;;;;4915841;29;20469;-79
2021/08/06 12:00:38;;;;;;;1.03;0.63;;;25.20;99.90;;;;;;4916566;29;20916;-78
2021/08/06 12:03:09;;;;;;;0.87;0.50;;;25.30;99.90;;;;;;4907311;29;20442;-80
2021/08/06 12:05:37;;;;;;;0.97;0.50;;;25.20;99.90;;;;;;4915172;29;20426;-79
2021/08/06 12:08:22;;;;;;;1.20;0.50;;;24.80;99.90;;;;;;4916912;29;20599;-79
2021/08/06 12:10:51;;;;;;;1.77;0.60;;;24.60;99.90;;;;;;4917651;29;20494;-79
2021/08/06 12:13:21;;;;;;;0.97;0.63;;;24.10;99.90;;;;;;4915087;29;20438;-79
2021/08/06 12:15:47;;;;;;;1.30;0.50;;;24.00;99.90;;;;;;4917684;29;20538;-79
2021/08/06 12:18:20;;;;;;;0.60;0.40;;;23.80;99.90;;;;;;4916607;29;20476;-77
2021/08/06 12:20:53;;;;;;;0.50;0.40;;;23.60;99.90;;;;;;4919164;29;20457;-80
2021/08/06 12:23:20;;;;;;;1.33;0.70;;;23.20;99.90;;;;;;4916704;29;20414;-79
2021/08/06 12:26:10;;;;;;;5.13;0.60;;;23.00;99.90;;;;;;4916081;29;20839;-80
2021/08/06 12:28:39;;;;;;;1.00;0.90;;;23.00;99.90;;;;;;4916912;29;20501;-79
2021/08/06 12:31:23;;;;;;;1.83;0.60;;;22.90;99.90;;;;;;4915927;29;20442;-80
2021/08/06 12:34:03;;;;;;;3.07;0.90;;;22.70;99.90;;;;;;4917318;29;20517;-79
2021/08/06 12:36:29;;;;;;;0.90;0.70;;;22.50;99.90;;;;;;4916730;29;20461;-79
2021/08/06 12:39:12;;;;;;;1.10;1.00;;;22.60;99.90;;;;;;4916142;29;20418;-79
2021/08/06 12:41:39;;;;;;;0.90;0.57;;;23.00;99.90;;;;;;4915498;29;20457;-79
2021/08/06 12:44:17;;;;;;;0.73;0.53;;;23.40;99.90;;;;;;4916948;29;20449;-80
2021/08/06 12:47:12;;;;;;;0.70;0.60;;;23.50;99.90;;;;;;4917626;29;20410;-80
2021/08/06 12:49:40;;;;;;;1.57;0.60;;;23.80;99.90;;;;;;4915562;29;20462;-80
2021/08/06 12:52:08;;;;;;;0.83;0.73;;;24.00;99.90;;;;;;4926953;29;20438;-79
2021/08/06 12:54:43;;;;;;;1.10;0.70;;;24.20;99.90;;;;;;4917699;29;21022;-78
2021/08/06 12:57:10;;;;;;;4.10;0.90;;;24.10;99.90;;;;;;4916047;29;20476;-79
2021/08/06 12:59:43;;;;;;;1.20;0.63;;;24.10;99.90;;;;;;4915230;29;20415;-79
2021/08/06 13:02:27;;;;;;;1.67;0.70;;;24.30;99.90;;;;;;4918635;29;20438;-79
2021/08/06 13:04:52;;;;;;;1.87;0.60;;;24.40;99.90;;;;;;4916815;29;20463;-79
2021/08/06 13:07:26;;;;;;;0.63;0.60;;;24.60;99.90;;;;;;4915680;29;20517;-81
2021/08/06 13:09:52;;;;;;;0.60;0.60;;;24.70;99.90;;;;;;4917591;29;20266;-80
2021/08/06 13:12:18;;;;;;;0.70;0.57;;;24.50;99.90;;;;;;4914336;29;20446;-80
2021/08/06 13:14:45;;;;;;;0.87;0.60;;;24.50;99.90;;;;;;4915008;29;20189;-79
2021/08/06 13:17:14;;;;;;;1.60;0.60;;;24.40;99.90;;;;;;4918618;29;20884;-80
2021/08/06 13:19:40;;;;;;;0.60;0.50;;;24.30;99.90;;;;;;4918091;29;20433;-80
2021/08/06 13:22:12;;;;;;;2.83;0.50;;;24.30;99.90;;;;;;4916740;29;20517;-79
2021/08/06 13:24:39;;;;;;;2.87;0.73;;;24.20;99.90;;;;;;4917489;29;20473;-79
2021/08/06 13:27:04;;;;;;;2.10;0.60;;;24.20;99.90;;;;;;4917254;29;20481;-80
2021/08/06 13:29:30;;;;;;;2.87;0.70;;;24.20;99.90;;;;;;4917378;29;20421;-80
2021/08/06 13:32:00;;;;;;;0.90;0.53;;;24.30;99.90;;;;;;4917135;29;20614;-78
2021/08/06 13:34:26;;;;;;;0.83;0.60;;;24.30;99.90;;;;;;4896660;29;20209;-79
2021/08/06 13:36:51;;;;;;;0.50;0.50;;;24.30;99.90;;;;;;4896914;29;20506;-79
2021/08/06 13:39:17;;;;;;;5.53;0.70;;;24.20;99.90;;;;;;4896497;29;20567;-78
2021/08/06 13:41:42;;;;;;;1.90;0.73;;;24.00;99.90;;;;;;4896320;29;20203;-78
2021/08/06 13:44:08;;;;;;;1.47;0.60;;;23.80;99.90;;;;;;4903444;29;20202;-80
2021/08/06 13:46:34;;;;;;;0.60;0.60;;;23.60;99.90;;;;;;4916494;29;20209;-78
2021/08/06 13:49:01;;;;;;;1.97;0.70;;;23.50;99.90;;;;;;4916136;29;20585;-80
2021/08/06 13:51:27;;;;;;;3.53;0.70;;;23.70;99.90;;;;;;4912866;29;20446;-80
2021/08/06 13:53:53;;;;;;;1.30;0.60;;;23.70;99.90;;;;;;4910644;29;20430;-77
2021/08/06 13:56:18;;;;;;;1.23;0.77;;;23.60;99.90;;;;;;4914772;29;20214;-79
2021/08/06 13:58:44;;;;;;;1.63;0.70;;;23.50;99.90;;;;;;4914837;29;20206;-79
2021/08/06 14:01:09;;;;;;;0.80;0.53;;;23.10;99.90;;;;;;4914394;29;20194;-78
2021/08/06 14:03:35;;;;;;;0.70;0.70;;;23.10;99.90;;;;;;4912150;29;20707;-78
2021/08/06 14:06:02;;;;;;;0.83;0.50;;;23.10;99.90;;;;;;4913684;29;20194;-79
2021/08/06 14:08:29;;;;;;;1.73;0.70;;;23.10;99.90;;;;;;4915084;29;20670;-80
2021/08/06 14:10:55;;;;;;;1.50;0.57;;;23.10;99.90;;;;;;4915475;29;20428;-80
2021/08/06 14:13:20;;;;;;;1.70;0.50;;;23.20;99.90;;;;;;4916104;29;20985;-80
2021/08/06 14:15:46;;;;;;;2.93;0.80;;;23.30;99.90;;;;;;4916102;29;20189;-80
2021/08/06 14:18:11;;;;;;;1.73;0.80;;;23.50;99.90;;;;;;4916700;29;20210;-80
2021/08/06 14:20:38;;;;;;;1.90;0.70;;;23.80;99.90;;;;;;4916274;29;20181;-79
2021/08/06 14:23:04;;;;;;;0.90;0.50;;;24.20;99.90;;;;;;4916997;29;20175;-80
2021/08/06 14:25:31;;;;;;;0.60;0.60;;;24.40;99.90;;;;;;4916307;29;20494;-80
2021/08/06 14:27:56;;;;;;;0.70;0.60;;;24.50;99.90;;;;;;4915874;29;20217;-80
2021/08/06 14:30:22;;;;;;;1.33;0.60;;;24.40;99.90;;;;;;4916702;29;20445;-80
2021/08/06 14:32:48;;;;;;;4.00;0.60;;;24.30;99.90;;;;;;4916033;29;20600;-80
2021/08/06 14:35:13;;;;;;;1.43;0.70;;;24.00;99.90;;;;;;4915158;29;20559;-80
2021/08/06 14:37:39;;;;;;;5.23;0.90;;;23.90;99.90;;;;;;4916443;29;20214;-80
2021/08/06 14:40:05;;;;;;;1.03;0.60;;;23.80;99.90;;;;;;4915678;29;20198;-80
2021/08/06 14:42:31;;;;;;;1.10;0.90;;;23.60;99.90;;;;;;4915636;29;20217;-80
2021/08/06 14:44:56;;;;;;;1.57;0.60;;;23.50;99.90;;;;;;4915805;29;20898;-80
2021/08/06 14:47:22;;;;;;;1.33;1.03;;;23.50;99.90;;;;;;4917940;29;20650;-79
2021/08/06 14:49:47;;;;;;;1.63;0.60;;;23.30;99.90;;;;;;4918255;29;20271;-80
2021/08/06 14:52:13;;;;;;;1.17;0.43;;;23.20;99.90;;;;;;4919468;29;20214;-80
2021/08/06 14:54:38;;;;;;;1.80;0.70;;;23.20;99.90;;;;;;4918728;29;20562;-80
2021/08/06 14:57:04;;;;;;;1.13;0.60;;;23.30;99.90;;;;;;4919395;29;20206;-79
2021/08/06 14:59:30;;;;;;;0.60;0.50;;;23.30;99.90;;;;;;4919652;29;20170;-80
2021/08/06 15:01:56;;;;;;;2.30;0.80;;;23.20;99.90;;;;;;4919538;29;20202;-80
2021/08/06 15:04:22;;;;;;;2.80;0.90;;;23.10;99.90;;;;;;4919588;29;20182;-80
2021/08/06 15:06:47;;;;;;;2.03;0.70;;;23.10;99.90;;;;;;4920001;29;20497;-80
2021/08/06 15:09:13;;;;;;;1.60;0.73;;;23.10;99.90;;;;;;4919558;29;20182;-80
2021/08/06 15:11:39;;;;;;;1.37;0.70;;;23.10;99.90;;;;;;4919725;29;20208;-80
2021/08/06 15:14:05;;;;;;;1.50;0.60;;;23.00;99.90;;;;;;4917785;29;20185;-79
2021/08/06 15:16:31;;;;;;;6.10;0.70;;;23.10;99.90;;;;;;4920851;29;20202;-80
2021/08/06 15:18:57;;;;;;;3.20;0.60;;;23.10;99.90;;;;;;4903328;29;20447;-80
2021/08/06 15:21:23;;;;;;;1.37;1.00;;;23.00;99.90;;;;;;4901089;29;20431;-80
2021/08/06 15:23:48;;;;;;;6.50;2.17;;;22.90;99.90;;;;;;4899441;29;20182;-80
2021/08/06 15:26:14;;;;;;;6.67;1.20;;;22.70;99.90;;;;;;4900630;29;20671;-80
2021/08/06 15:28:39;;;;;;;1.63;0.80;;;22.60;99.90;;;;;;4904729;29;20174;-80
2021/08/06 15:31:06;;;;;;;0.70;0.70;;;22.50;99.90;;;;;;4918484;29;20269;-79
2021/08/06 15:33:32;;;;;;;1.40;0.67;;;22.50;99.90;;;;;;4918240;29;20178;-80
2021/08/06 15:35:57;;;;;;;1.90;0.50;;;22.50;99.90;;;;;;4919020;29;20470;-80
2021/08/06 15:38:23;;;;;;;1.30;0.90;;;22.50;99.90;;;;;;4919552;29;20210;-80
2021/08/06 15:40:49;;;;;;;2.00;0.57;;;22.70;99.90;;;;;;4919121;29;20174;-80
2021/08/06 15:43:14;;;;;;;2.43;0.70;;;22.80;99.90;;;;;;4918791;29;20186;-80
2021/08/06 15:45:41;;;;;;;0.60;0.57;;;22.70;99.90;;;;;;4919158;29;20704;-80
2021/08/06 15:48:06;;;;;;;1.57;0.50;;;22.70;99.90;;;;;;4919216;29;20182;-80
2021/08/06 15:50:32;;;;;;;1.63;0.80;;;22.50;99.90;;;;;;4918261;29;20414;-80
2021/08/06 15:52:57;;;;;;;1.13;0.90;;;22.50;99.90;;;;;;4921527;29;20265;-81
2021/08/06 15:55:24;;;;;;;6.33;0.83;;;22.40;99.90;;;;;;4922441;29;20182;-80
2021/08/06 15:57:50;;;;;;;2.73;0.70;;;22.40;99.90;;;;;;4921887;29;20209;-80
2021/08/06 16:00:17;;;;;;;1.70;0.70;;;22.30;99.90;;;;;;4922672;29;20410;-80
2021/08/06 16:02:45;;;;;;;1.37;0.80;;;22.30;99.90;;;;;;4923482;29;20441;-79
2021/08/06 16:05:11;;;;;;;1.00;0.83;;;22.40;99.90;;;;;;4923431;29;20505;-80
2021/08/06 16:07:36;;;;;;;1.07;0.67;;;22.40;99.90;;;;;;4922777;29;20410;-80
2021/08/06 16:10:03;;;;;;;1.10;0.80;;;22.30;99.90;;;;;;4923052;29;20804;-80
2021/08/06 16:12:30;;;;;;;1.07;0.60;;;22.30;99.90;;;;;;4922989;29;20230;-80
2021/08/06 16:14:56;;;;;;;1.80;0.70;;;22.40;99.90;;;;;;4923408;29;20446;-80
2021/08/06 16:17:21;;;;;;;2.17;0.80;;;22.30;99.90;;;;;;4922769;29;20468;-81
2021/08/06 16:19:47;;;;;;;0.80;0.70;;;22.30;99.90;;;;;;4921553;29;20178;-80
2021/08/06 16:22:12;;;;;;;1.00;0.90;;;22.30;99.90;;;;;;4922202;29;20198;-80
2021/08/06 16:24:38;;;;;;;2.60;0.73;;;22.30;99.90;;;;;;4921230;29;20204;-80
2021/08/06 16:27:03;;;;;;;1.70;0.90;;;22.20;99.90;;;;;;4922545;29;20182;-79
2021/08/06 16:29:31;;;;;;;2.30;0.90;;;22.20;99.90;;;;;;4919929;29;20189;-79
2021/08/06 16:31:59;;;;;;;1.20;0.90;;;22.10;99.90;;;;;;4917587;29;20222;-79
2021/08/06 16:34:25;;;;;;;2.57;0.80;;;22.10;99.90;;;;;;4917318;29;20512;-80
2021/08/06 16:36:50;;;;;;;2.97;1.53;;;22.10;99.90;;;;;;4916669;29;20556;-79
2021/08/06 16:39:17;;;;;;;1.93;0.80;;;22.00;99.90;;;;;;4917311;29;20185;-79
2021/08/06 16:41:46;;;;;;;1.47;0.50;;;22.00;99.90;;;;;;4916734;29;20210;-80
2021/08/06 16:44:11;;;;;;;0.70;0.60;;;22.00;99.90;;;;;;4917767;29;20414;-79
2021/08/06 16:46:37;;;;;;;1.50;0.60;;;22.00;99.90;;;;;;4919093;29;21010;-80
2021/08/06 16:49:03;;;;;;;1.20;1.07;;;22.00;99.90;;;;;;4918021;29;20256;-78
2021/08/06 16:51:28;;;;;;;1.43;0.90;;;22.00;99.90;;;;;;4916377;29;20214;-79
2021/08/06 16:53:54;;;;;;;3.23;0.83;;;22.00;99.90;;;;;;4917432;29;20330;-79
2021/08/06 16:56:19;;;;;;;1.00;0.70;;;22.00;99.90;;;;;;4917814;29;20205;-79
2021/08/06 16:58:45;;;;;;;0.90;0.80;;;22.00;99.90;;;;;;4916715;29;20241;-79
2021/08/06 17:01:10;;;;;;;1.90;0.70;;;21.90;99.90;;;;;;4917509;29;20704;-79
2021/08/06 17:03:36;;;;;;;1.23;0.90;;;21.90;99.90;;;;;;4917819;29;20648;-79
2021/08/06 17:06:02;;;;;;;1.47;0.90;;;21.90;99.90;;;;;;4917739;29;20174;-79
2021/08/06 17:08:28;;;;;;;3.00;0.70;;;21.80;99.90;;;;;;4917995;29;20444;-79
2021/08/06 17:10:53;;;;;;;1.63;0.63;;;21.70;99.90;;;;;;4916759;29;20664;-78
2021/08/06 17:13:19;;;;;;;0.60;0.60;;;21.70;99.90;;;;;;4921821;29;20174;-80
2021/08/06 17:15:46;;;;;;;1.13;0.80;;;21.60;99.90;;;;;;4920474;29;20182;-80
2021/08/06 17:18:12;;;;;;;1.60;1.50;;;21.50;99.90;;;;;;4922187;29;20500;-79
2021/08/06 17:20:37;;;;;;;1.43;1.10;;;21.40;99.90;;;;;;4923636;29;20411;-80
2021/08/06 17:23:03;;;;;;;2.07;0.97;;;21.50;99.90;;;;;;4921368;29;20209;-79